If you wish to contribute or participate in the discussions about articles you are invited to join SKYbrary as a registered user

 Actions

Balmaceda Airport

From SKYbrary Wiki

SCBA
Airport
ICAO: SCBA – IATA: BBA
Summary
Name Balmaceda Airport
Region South America and Caribbean
Territory Chile CL.gif
Location Balmaceda, Coyhaique
Serving Balmaceda
Elevation 524.866 m
1,722 ft
1,722 ft524.866 m
Coordinates 45° 54' 53.21" S, 71° 41' 30.57" W
Runways
Designator Length Width Surface ROPS
9/27 2501 m8,205.381 ft
45 m147.638 ft
ASP /


METAR
Observation SCBA 230800Z AUTO 31015KT 9999 FEW050 SCT068 BKN140 08/04 Q1009
Station Balmaceda
Date/Time 23 March 2019 08:00:00
Wind direction 310°
Wind speed 15 kts
Lowest cloud amount few clouds
Temperature 8°C
Dew point 4°C
Humidity 75%
QNH 1009 hPa
Weather condition n/a

Balmaceda Airport is an airport in Balmaceda, Chile, serving the Aysén del General Carlos Ibáñez del Campo Region.

Maps

Terrain

Loading map...

Airport Layout

Loading map...


Accidents & Serious Incidents at or in vicinity of SCBA

None on SKYbrary